LAN2585 SACO-SCEL
Flight info
| Callsign | LAN2585 |
|---|---|
| Flight time | 1h 10m |
| Altitude | 38000 |
| Route | ALDEX1G ALDEX UZ105 UMKAL UMKAL7C |
| Aircraft | A320/M-SDE3FGHIRWY/LB1 |
Departure
| Time | 2026-05-07 05:47 |
|---|---|
| Airport | Ingeniero Aeronáutico Ambrosio L.V. Taravella International Airport (SACO) |
Arrival
| Time | 2026-05-07 06:57 |
|---|---|
| Airport | Comodoro Arturo Merino Benítez International Airport (SCEL) |
| Time | Latitude | Longitude | Altitude | Speed | Heading |
|---|---|---|---|---|---|
| 2026-05-07 05:29 | -31.31514 | -64.21162 | 1619 ft | 0 kts | 270° |
| 2026-05-07 05:36 | -31.31514 | -64.21160 | 1619 ft | 2 kts | 270° |
| 2026-05-07 05:36 | -31.31514 | -64.21130 | 1619 ft | 4 kts | 276° |
| 2026-05-07 05:36 | -31.31520 | -64.21099 | 1619 ft | 4 kts | 297° |
| 2026-05-07 05:37 | -31.31535 | -64.21081 | 1623 ft | 4 kts | 358° |
| 2026-05-07 05:37 | -31.31539 | -64.21081 | 1623 ft | 4 kts | 359° |
| 2026-05-07 05:37 | -31.31535 | -64.21081 | 1623 ft | 0 kts | 359° |
| 2026-05-07 05:41 | -31.31527 | -64.21081 | 1619 ft | 3 kts | 359° |
| 2026-05-07 05:41 | -31.31500 | -64.21073 | 1619 ft | 5 kts | 24° |
| 2026-05-07 05:41 | -31.31473 | -64.21035 | 1613 ft | 7 kts | 69° |
| 2026-05-07 05:42 | -31.31466 | -64.20968 | 1613 ft | 9 kts | 89° |
| 2026-05-07 05:42 | -31.31466 | -64.20889 | 1614 ft | 10 kts | 89° |
| 2026-05-07 05:42 | -31.31429 | -64.20825 | 1614 ft | 11 kts | 1° |
| 2026-05-07 05:42 | -31.31340 | -64.20830 | 1617 ft | 14 kts | 359° |
| 2026-05-07 05:43 | -31.31235 | -64.20832 | 1612 ft | 16 kts | 359° |
| 2026-05-07 05:43 | -31.31115 | -64.20834 | 1616 ft | 18 kts | 359° |
| 2026-05-07 05:43 | -31.30981 | -64.20836 | 1613 ft | 20 kts | 359° |
| 2026-05-07 05:43 | -31.30834 | -64.20838 | 1616 ft | 22 kts | 359° |
| 2026-05-07 05:44 | -31.30675 | -64.20840 | 1618 ft | 23 kts | 359° |
| 2026-05-07 05:44 | -31.30507 | -64.20842 | 1620 ft | 25 kts | 359° |
| 2026-05-07 05:44 | -31.30329 | -64.20845 | 1616 ft | 26 kts | 359° |
| 2026-05-07 05:44 | -31.30141 | -64.20848 | 1619 ft | 28 kts | 359° |
| 2026-05-07 05:45 | -31.29937 | -64.20852 | 1619 ft | 30 kts | 359° |
| 2026-05-07 05:45 | -31.29729 | -64.20855 | 1615 ft | 20 kts | 360° |
| 2026-05-07 05:45 | -31.29643 | -64.20890 | 1615 ft | 9 kts | 339° |
| 2026-05-07 05:45 | -31.29598 | -64.20873 | 1612 ft | 8 kts | 91° |
| 2026-05-07 05:46 | -31.29651 | -64.20856 | 1621 ft | 10 kts | 179° |
| 2026-05-07 05:46 | -31.29872 | -64.20854 | 1616 ft | 65 kts | 179° |
| 2026-05-07 05:46 | -31.30530 | -64.20843 | 1620 ft | 122 kts | 179° |
| 2026-05-07 05:46 | -31.31509 | -64.20828 | 1735 ft | 153 kts | 180° |
| 2026-05-07 05:47 | -31.32578 | -64.20753 | 2352 ft | 159 kts | 171° |
| 2026-05-07 05:47 | -31.33546 | -64.19993 | 2676 ft | 187 kts | 129° |
| 2026-05-07 05:47 | -31.34205 | -64.18608 | 3206 ft | 196 kts | 117° |
| 2026-05-07 05:47 | -31.34753 | -64.17159 | 3893 ft | 195 kts | 116° |
| 2026-05-07 05:48 | -31.35285 | -64.15721 | 4648 ft | 185 kts | 117° |
| 2026-05-07 05:48 | -31.35801 | -64.14361 | 5310 ft | 182 kts | 119° |
| 2026-05-07 05:48 | -31.36336 | -64.13006 | 5849 ft | 185 kts | 121° |
| 2026-05-07 05:48 | -31.36883 | -64.11635 | 6357 ft | 189 kts | 117° |
| 2026-05-07 05:49 | -31.37169 | -64.10103 | 6830 ft | 198 kts | 95° |
| 2026-05-07 05:49 | -31.37006 | -64.08481 | 7303 ft | 205 kts | 73° |
| 2026-05-07 05:49 | -31.36383 | -64.06979 | 7800 ft | 207 kts | 51° |
| 2026-05-07 05:49 | -31.35368 | -64.05814 | 8294 ft | 204 kts | 28° |
| 2026-05-07 05:50 | -31.34106 | -64.05126 | 8814 ft | 197 kts | 6° |
| 2026-05-07 05:50 | -31.32775 | -64.04965 | 9353 ft | 189 kts | 346° |
| 2026-05-07 05:50 | -31.31555 | -64.05355 | 9893 ft | 178 kts | 323° |
| 2026-05-07 05:50 | -31.30601 | -64.06202 | 10416 ft | 169 kts | 306° |
| 2026-05-07 05:51 | -31.29981 | -64.07341 | 10935 ft | 165 kts | 289° |
| 2026-05-07 05:51 | -31.29733 | -64.08646 | 11433 ft | 168 kts | 274° |
| 2026-05-07 05:51 | -31.29901 | -64.10081 | 11652 ft | 193 kts | 255° |
| 2026-05-07 05:51 | -31.30528 | -64.11589 | 11817 ft | 218 kts | 251° |
| 2026-05-07 05:52 | -31.31052 | -64.13300 | 12308 ft | 224 kts | 261° |
| 2026-05-07 05:52 | -31.31298 | -64.15082 | 13093 ft | 222 kts | 271° |
| 2026-05-07 05:52 | -31.31317 | -64.16892 | 13798 ft | 224 kts | 275° |
| 2026-05-07 05:52 | -31.31319 | -64.18720 | 14466 ft | 226 kts | 275° |
| 2026-05-07 05:53 | -31.31382 | -64.20559 | 15183 ft | 229 kts | 268° |
| 2026-05-07 05:53 | -31.31741 | -64.22403 | 15838 ft | 238 kts | 264° |
| 2026-05-07 05:53 | -31.32155 | -64.24372 | 16050 ft | 261 kts | 264° |
| 2026-05-07 05:53 | -31.32606 | -64.26528 | 16184 ft | 285 kts | 264° |
| 2026-05-07 05:54 | -31.33097 | -64.28866 | 16312 ft | 307 kts | 263° |
| 2026-05-07 05:54 | -31.33631 | -64.31380 | 16441 ft | 329 kts | 263° |
| 2026-05-07 05:54 | -31.34204 | -64.34035 | 16751 ft | 342 kts | 262° |
| 2026-05-07 05:54 | -31.34797 | -64.36757 | 17340 ft | 347 kts | 262° |
| 2026-05-07 05:55 | -31.35395 | -64.39513 | 17966 ft | 352 kts | 262° |
| 2026-05-07 05:55 | -31.35997 | -64.42302 | 18572 ft | 355 kts | 263° |
| 2026-05-07 05:55 | -31.36601 | -64.45107 | 19226 ft | 356 kts | 263° |
| 2026-05-07 05:55 | -31.37205 | -64.47930 | 19877 ft | 358 kts | 263° |
| 2026-05-07 05:56 | -31.37799 | -64.50723 | 20517 ft | 360 kts | 263° |
| 2026-05-07 05:56 | -31.38402 | -64.53571 | 21144 ft | 362 kts | 263° |
| 2026-05-07 05:56 | -31.39121 | -64.56410 | 21762 ft | 369 kts | 256° |
| 2026-05-07 05:56 | -31.40073 | -64.59214 | 22357 ft | 371 kts | 256° |
| 2026-05-07 05:57 | -31.41031 | -64.62034 | 22942 ft | 374 kts | 256° |
| 2026-05-07 05:57 | -31.41991 | -64.64872 | 23463 ft | 376 kts | 256° |
| 2026-05-07 05:57 | -31.42953 | -64.67721 | 23940 ft | 377 kts | 256° |
| 2026-05-07 05:57 | -31.43916 | -64.70580 | 24448 ft | 378 kts | 256° |
| 2026-05-07 05:58 | -31.44883 | -64.73445 | 24922 ft | 379 kts | 256° |
| 2026-05-07 05:58 | -31.45853 | -64.76319 | 25389 ft | 380 kts | 256° |
| 2026-05-07 05:58 | -31.46824 | -64.79201 | 25843 ft | 381 kts | 256° |
| 2026-05-07 05:58 | -31.47795 | -64.82094 | 26282 ft | 383 kts | 256° |
| 2026-05-07 05:59 | -31.48771 | -64.85002 | 26745 ft | 384 kts | 256° |
| 2026-05-07 05:59 | -31.49895 | -64.87863 | 27211 ft | 392 kts | 249° |
| 2026-05-07 05:59 | -31.51294 | -64.90628 | 27655 ft | 395 kts | 248° |
| 2026-05-07 05:59 | -31.52707 | -64.93395 | 28090 ft | 397 kts | 248° |
| 2026-05-07 06:00 | -31.54126 | -64.96178 | 28544 ft | 398 kts | 248° |
| 2026-05-07 06:00 | -31.55548 | -64.98968 | 29027 ft | 399 kts | 249° |
| 2026-05-07 06:00 | -31.56973 | -65.01769 | 29472 ft | 400 kts | 249° |
| 2026-05-07 06:00 | -31.58398 | -65.04574 | 29869 ft | 401 kts | 249° |
| 2026-05-07 06:01 | -31.59826 | -65.07387 | 30203 ft | 403 kts | 249° |
| 2026-05-07 06:01 | -31.61261 | -65.10222 | 30504 ft | 405 kts | 249° |
| 2026-05-07 06:01 | -31.62698 | -65.13066 | 30785 ft | 407 kts | 249° |
| 2026-05-07 06:01 | -31.64142 | -65.15926 | 31151 ft | 407 kts | 249° |
| 2026-05-07 06:02 | -31.65580 | -65.18778 | 31565 ft | 404 kts | 251° |
| 2026-05-07 06:02 | -31.66755 | -65.21717 | 31987 ft | 394 kts | 257° |
| 2026-05-07 06:02 | -31.67436 | -65.23692 | 32240 ft | 394 kts | 257° |
| 2026-05-07 06:02 | -31.68807 | -65.27681 | 32799 ft | 394 kts | 257° |
| 2026-05-07 06:03 | -31.69484 | -65.29656 | 33078 ft | 393 kts | 258° |
| 2026-05-07 06:03 | -31.70502 | -65.32628 | 33589 ft | 391 kts | 257° |
| 2026-05-07 06:03 | -31.71519 | -65.35588 | 34041 ft | 390 kts | 257° |
| 2026-05-07 06:03 | -31.72530 | -65.38531 | 34449 ft | 389 kts | 257° |
| 2026-05-07 06:04 | -31.73539 | -65.41477 | 34787 ft | 389 kts | 257° |
| 2026-05-07 06:04 | -31.74545 | -65.44425 | 35113 ft | 389 kts | 257° |
| 2026-05-07 06:04 | -31.75550 | -65.47375 | 35437 ft | 389 kts | 257° |
| 2026-05-07 06:04 | -31.76559 | -65.50327 | 35715 ft | 390 kts | 257° |
| 2026-05-07 06:05 | -31.77568 | -65.53287 | 35791 ft | 390 kts | 257° |
| 2026-05-07 06:05 | -31.79588 | -65.59203 | 35800 ft | 390 kts | 257° |
| 2026-05-07 06:06 | -31.81599 | -65.65111 | 35788 ft | 388 kts | 256° |
| 2026-05-07 06:06 | -31.83600 | -65.70999 | 35791 ft | 388 kts | 256° |
| 2026-05-07 06:07 | -31.85596 | -65.76890 | 35790 ft | 388 kts | 256° |
| 2026-05-07 06:07 | -31.87589 | -65.82786 | 35793 ft | 388 kts | 256° |
| 2026-05-07 06:08 | -31.89587 | -65.88685 | 35793 ft | 388 kts | 256° |
| 2026-05-07 06:08 | -31.91579 | -65.94589 | 35830 ft | 388 kts | 256° |
| 2026-05-07 06:09 | -31.93554 | -66.00460 | 35822 ft | 388 kts | 256° |
| 2026-05-07 06:09 | -31.95531 | -66.06367 | 35816 ft | 388 kts | 256° |
| 2026-05-07 06:10 | -31.97504 | -66.12272 | 35818 ft | 388 kts | 256° |
| 2026-05-07 06:10 | -31.99475 | -66.18187 | 35815 ft | 388 kts | 256° |
| 2026-05-07 06:11 | -32.01447 | -66.24095 | 35822 ft | 388 kts | 256° |
| 2026-05-07 06:11 | -32.03417 | -66.29998 | 35808 ft | 386 kts | 256° |
| 2026-05-07 06:12 | -32.05382 | -66.35894 | 35809 ft | 387 kts | 256° |
| 2026-05-07 06:12 | -32.07338 | -66.41803 | 35810 ft | 387 kts | 256° |
| 2026-05-07 06:13 | -32.09292 | -66.47722 | 35813 ft | 387 kts | 256° |
| 2026-05-07 06:13 | -32.11040 | -66.53694 | 35819 ft | 383 kts | 261° |
| 2026-05-07 06:14 | -32.12471 | -66.59742 | 35823 ft | 383 kts | 261° |
| 2026-05-07 06:14 | -32.13920 | -66.65800 | 35828 ft | 384 kts | 261° |
| 2026-05-07 06:15 | -32.15364 | -66.71865 | 35825 ft | 384 kts | 261° |
| 2026-05-07 06:15 | -32.16801 | -66.77945 | 35825 ft | 384 kts | 261° |
| 2026-05-07 06:16 | -32.18238 | -66.84023 | 35820 ft | 385 kts | 261° |
| 2026-05-07 06:16 | -32.19672 | -66.90104 | 35887 ft | 385 kts | 260° |
| 2026-05-07 06:17 | -32.21109 | -66.96204 | 35841 ft | 386 kts | 260° |
| 2026-05-07 06:17 | -32.22546 | -67.02317 | 35845 ft | 386 kts | 260° |
| 2026-05-07 06:18 | -32.23983 | -67.08440 | 35845 ft | 387 kts | 260° |
| 2026-05-07 06:18 | -32.25404 | -67.14529 | 35844 ft | 387 kts | 260° |
| 2026-05-07 06:19 | -32.26842 | -67.20708 | 35858 ft | 388 kts | 260° |
| 2026-05-07 06:19 | -32.28263 | -67.26813 | 35861 ft | 388 kts | 259° |
| 2026-05-07 06:20 | -32.29692 | -67.32965 | 35867 ft | 388 kts | 259° |
| 2026-05-07 06:20 | -32.31119 | -67.39127 | 35865 ft | 389 kts | 259° |
| 2026-05-07 06:21 | -32.32543 | -67.45292 | 35873 ft | 389 kts | 259° |
| 2026-05-07 06:21 | -32.33968 | -67.51465 | 35870 ft | 389 kts | 260° |
| 2026-05-07 06:22 | -32.35384 | -67.57641 | 35902 ft | 390 kts | 259° |
| 2026-05-07 06:22 | -32.37508 | -67.66949 | 35878 ft | 392 kts | 259° |
| 2026-05-07 06:23 | -32.38931 | -67.73180 | 35888 ft | 392 kts | 259° |
| 2026-05-07 06:23 | -32.40351 | -67.79413 | 35887 ft | 393 kts | 259° |
| 2026-05-07 06:24 | -32.41769 | -67.85656 | 35897 ft | 393 kts | 259° |
| 2026-05-07 06:24 | -32.43185 | -67.91910 | 35896 ft | 393 kts | 259° |
| 2026-05-07 06:25 | -32.44600 | -67.98162 | 35901 ft | 393 kts | 259° |
| 2026-05-07 06:25 | -32.46014 | -68.04419 | 35902 ft | 393 kts | 259° |
| 2026-05-07 06:26 | -32.47424 | -68.10681 | 35904 ft | 393 kts | 259° |
| 2026-05-07 06:26 | -32.48829 | -68.16943 | 35902 ft | 394 kts | 259° |
| 2026-05-07 06:27 | -32.50228 | -68.23214 | 35914 ft | 394 kts | 258° |
| 2026-05-07 06:27 | -32.51632 | -68.29506 | 35901 ft | 396 kts | 258° |
| 2026-05-07 06:28 | -32.53042 | -68.35816 | 35897 ft | 397 kts | 258° |
| 2026-05-07 06:28 | -32.54448 | -68.42149 | 35898 ft | 397 kts | 259° |
| 2026-05-07 06:29 | -32.55856 | -68.48487 | 35904 ft | 398 kts | 258° |
| 2026-05-07 06:29 | -32.57262 | -68.54832 | 35931 ft | 399 kts | 258° |
| 2026-05-07 06:30 | -32.58663 | -68.61209 | 35915 ft | 400 kts | 258° |
| 2026-05-07 06:30 | -32.60066 | -68.67612 | 35915 ft | 402 kts | 258° |
| 2026-05-07 06:31 | -32.61474 | -68.74039 | 35924 ft | 403 kts | 258° |
| 2026-05-07 06:31 | -32.62874 | -68.80433 | 35977 ft | 404 kts | 258° |
| 2026-05-07 06:32 | -32.64290 | -68.86903 | 35959 ft | 406 kts | 258° |
| 2026-05-07 06:32 | -32.65704 | -68.93410 | 35928 ft | 409 kts | 257° |
| 2026-05-07 06:33 | -32.67115 | -68.99960 | 35936 ft | 410 kts | 257° |
| 2026-05-07 06:33 | -32.68538 | -69.06538 | 35942 ft | 412 kts | 257° |
| 2026-05-07 06:34 | -32.69957 | -69.13142 | 35976 ft | 413 kts | 257° |
| 2026-05-07 06:34 | -32.71381 | -69.19751 | 35984 ft | 413 kts | 256° |
| 2026-05-07 06:35 | -32.72812 | -69.26385 | 36021 ft | 416 kts | 255° |
| 2026-05-07 06:35 | -32.74238 | -69.33055 | 36022 ft | 417 kts | 256° |
| 2026-05-07 06:36 | -32.75668 | -69.39740 | 36073 ft | 418 kts | 256° |
| 2026-05-07 06:36 | -32.77094 | -69.46447 | 36073 ft | 419 kts | 256° |
| 2026-05-07 06:37 | -32.77801 | -69.49789 | 35681 ft | 417 kts | 256° |
| 2026-05-07 06:37 | -32.78509 | -69.53133 | 35079 ft | 418 kts | 255° |
| 2026-05-07 06:37 | -32.79220 | -69.56489 | 34438 ft | 419 kts | 255° |
| 2026-05-07 06:37 | -32.79931 | -69.59851 | 33749 ft | 419 kts | 255° |
| 2026-05-07 06:38 | -32.80636 | -69.63207 | 33043 ft | 418 kts | 255° |
| 2026-05-07 06:38 | -32.81338 | -69.66552 | 32440 ft | 416 kts | 255° |
| 2026-05-07 06:38 | -32.82036 | -69.69860 | 31980 ft | 409 kts | 255° |
| 2026-05-07 06:38 | -32.82723 | -69.73112 | 31506 ft | 403 kts | 255° |
| 2026-05-07 06:39 | -32.83401 | -69.76329 | 30787 ft | 402 kts | 255° |
| 2026-05-07 06:39 | -32.84087 | -69.79593 | 29697 ft | 409 kts | 256° |
| 2026-05-07 06:39 | -32.84772 | -69.82868 | 28953 ft | 406 kts | 256° |
| 2026-05-07 06:39 | -32.85441 | -69.86067 | 28256 ft | 401 kts | 256° |
| 2026-05-07 06:40 | -32.86114 | -69.89297 | 27650 ft | 393 kts | 256° |
| 2026-05-07 06:40 | -32.86753 | -69.92381 | 27041 ft | 386 kts | 256° |
| 2026-05-07 06:40 | -32.87391 | -69.95466 | 26401 ft | 381 kts | 256° |
| 2026-05-07 06:40 | -32.87984 | -69.98520 | 25765 ft | 376 kts | 261° |
| 2026-05-07 06:41 | -32.88158 | -70.01601 | 25081 ft | 373 kts | 271° |
| 2026-05-07 06:41 | -32.87912 | -70.04660 | 24517 ft | 370 kts | 275° |
| 2026-05-07 06:41 | -32.87629 | -70.07691 | 23936 ft | 367 kts | 275° |
| 2026-05-07 06:41 | -32.87350 | -70.10693 | 23248 ft | 363 kts | 275° |
| 2026-05-07 06:42 | -32.87076 | -70.13666 | 22629 ft | 360 kts | 275° |
| 2026-05-07 06:42 | -32.86807 | -70.16613 | 22034 ft | 357 kts | 275° |
| 2026-05-07 06:42 | -32.86541 | -70.19532 | 21423 ft | 354 kts | 275° |
| 2026-05-07 06:42 | -32.86274 | -70.22441 | 20730 ft | 355 kts | 275° |
| 2026-05-07 06:43 | -32.86001 | -70.25369 | 20112 ft | 356 kts | 275° |
| 2026-05-07 06:43 | -32.85729 | -70.28290 | 19593 ft | 355 kts | 276° |
| 2026-05-07 06:43 | -32.85458 | -70.31197 | 19066 ft | 353 kts | 276° |
| 2026-05-07 06:43 | -32.85189 | -70.34087 | 18548 ft | 351 kts | 276° |
| 2026-05-07 06:44 | -32.84919 | -70.36962 | 17968 ft | 349 kts | 276° |
| 2026-05-07 06:44 | -32.84650 | -70.39821 | 17331 ft | 347 kts | 276° |
| 2026-05-07 06:44 | -32.84384 | -70.42664 | 16682 ft | 346 kts | 276° |
| 2026-05-07 06:44 | -32.84119 | -70.45494 | 16058 ft | 344 kts | 276° |
| 2026-05-07 06:45 | -32.83855 | -70.48313 | 15375 ft | 343 kts | 276° |
| 2026-05-07 06:45 | -32.83591 | -70.51128 | 14758 ft | 342 kts | 276° |
| 2026-05-07 06:45 | -32.83327 | -70.53932 | 14163 ft | 340 kts | 276° |
| 2026-05-07 06:45 | -32.83065 | -70.56720 | 13511 ft | 339 kts | 275° |
| 2026-05-07 06:46 | -32.82801 | -70.59500 | 12863 ft | 337 kts | 275° |
| 2026-05-07 06:46 | -32.82538 | -70.62263 | 12219 ft | 336 kts | 275° |
| 2026-05-07 06:46 | -32.82277 | -70.65011 | 11603 ft | 334 kts | 275° |
| 2026-05-07 06:46 | -32.82200 | -70.67752 | 11010 ft | 331 kts | 262° |
| 2026-05-07 06:47 | -32.82843 | -70.70351 | 10550 ft | 326 kts | 243° |
| 2026-05-07 06:47 | -32.84131 | -70.72480 | 10421 ft | 311 kts | 226° |
| 2026-05-07 06:47 | -32.85679 | -70.74200 | 10302 ft | 298 kts | 224° |
| 2026-05-07 06:47 | -32.87168 | -70.75843 | 10175 ft | 286 kts | 224° |
| 2026-05-07 06:48 | -32.88603 | -70.77429 | 9990 ft | 278 kts | 224° |
| 2026-05-07 06:48 | -32.90011 | -70.78989 | 9685 ft | 275 kts | 224° |
| 2026-05-07 06:48 | -32.91500 | -70.80410 | 9327 ft | 275 kts | 212° |
| 2026-05-07 06:48 | -32.93267 | -70.81277 | 8954 ft | 277 kts | 194° |
| 2026-05-07 06:49 | -32.95173 | -70.81612 | 8586 ft | 277 kts | 188° |
| 2026-05-07 06:49 | -32.97063 | -70.81889 | 8229 ft | 277 kts | 188° |
| 2026-05-07 06:49 | -32.98974 | -70.82170 | 7868 ft | 277 kts | 188° |
| 2026-05-07 06:49 | -33.00886 | -70.82374 | 7532 ft | 276 kts | 180° |
| 2026-05-07 06:50 | -33.02802 | -70.82253 | 7189 ft | 276 kts | 176° |
| 2026-05-07 06:50 | -33.04700 | -70.82107 | 7007 ft | 269 kts | 178° |
| 2026-05-07 06:50 | -33.06539 | -70.82005 | 6884 ft | 260 kts | 178° |
| 2026-05-07 06:50 | -33.08319 | -70.81913 | 6767 ft | 252 kts | 178° |
| 2026-05-07 06:51 | -33.10038 | -70.81823 | 6645 ft | 243 kts | 178° |
| 2026-05-07 06:51 | -33.11695 | -70.81735 | 6539 ft | 234 kts | 178° |
| 2026-05-07 06:51 | -33.13307 | -70.81649 | 6286 ft | 231 kts | 178° |
| 2026-05-07 06:51 | -33.14395 | -70.81591 | 6082 ft | 231 kts | 177° |
| 2026-05-07 06:52 | -33.15982 | -70.81506 | 5772 ft | 232 kts | 177° |
| 2026-05-07 06:52 | -33.17596 | -70.81420 | 5459 ft | 225 kts | 177° |
| 2026-05-07 06:52 | -33.19136 | -70.81338 | 5153 ft | 217 kts | 177° |
| 2026-05-07 06:52 | -33.20586 | -70.81261 | 4919 ft | 205 kts | 177° |
| 2026-05-07 06:53 | -33.21973 | -70.81187 | 4609 ft | 193 kts | 177° |
| 2026-05-07 06:53 | -33.23248 | -70.81119 | 4356 ft | 175 kts | 177° |
| 2026-05-07 06:53 | -33.24419 | -70.81056 | 4128 ft | 162 kts | 177° |
| 2026-05-07 06:53 | -33.25511 | -70.80997 | 3913 ft | 149 kts | 177° |
| 2026-05-07 06:54 | -33.26514 | -70.80944 | 3726 ft | 144 kts | 177° |
| 2026-05-07 06:54 | -33.27503 | -70.80892 | 3545 ft | 142 kts | 177° |
| 2026-05-07 06:54 | -33.28512 | -70.80843 | 3379 ft | 147 kts | 178° |
| 2026-05-07 06:54 | -33.29527 | -70.80790 | 3145 ft | 146 kts | 177° |
| 2026-05-07 06:55 | -33.30544 | -70.80732 | 2940 ft | 146 kts | 176° |
| 2026-05-07 06:55 | -33.31559 | -70.80679 | 2729 ft | 147 kts | 176° |
| 2026-05-07 06:55 | -33.32582 | -70.80624 | 2524 ft | 148 kts | 176° |
| 2026-05-07 06:55 | -33.33611 | -70.80564 | 2328 ft | 148 kts | 176° |
| 2026-05-07 06:56 | -33.34640 | -70.80505 | 2123 ft | 147 kts | 176° |
| 2026-05-07 06:56 | -33.35654 | -70.80459 | 1911 ft | 145 kts | 176° |
| 2026-05-07 06:56 | -33.36650 | -70.80405 | 1723 ft | 142 kts | 175° |
| 2026-05-07 06:56 | -33.37633 | -70.80354 | 1578 ft | 134 kts | 176° |
| 2026-05-07 06:57 | -33.38421 | -70.80308 | 1573 ft | 89 kts | 177° |
| 2026-05-07 06:57 | -33.38871 | -70.80283 | 1574 ft | 44 kts | 177° |
| 2026-05-07 06:57 | -33.39148 | -70.80268 | 1573 ft | 32 kts | 175° |
| 2026-05-07 06:57 | -33.39351 | -70.80184 | 1571 ft | 24 kts | 147° |
| 2026-05-07 06:58 | -33.39456 | -70.80106 | 1567 ft | 18 kts | 148° |
| 2026-05-07 06:58 | -33.39526 | -70.80005 | 1566 ft | 18 kts | 106° |
| 2026-05-07 06:58 | -33.39528 | -70.79846 | 1565 ft | 21 kts | 89° |
| 2026-05-07 06:58 | -33.39523 | -70.79711 | 1565 ft | 7 kts | 86° |
| 2026-05-07 06:59 | -33.39520 | -70.79650 | 1565 ft | 8 kts | 86° |
| 2026-05-07 06:59 | -33.39548 | -70.79609 | 1565 ft | 9 kts | 179° |
| 2026-05-07 06:59 | -33.39592 | -70.79608 | 1565 ft | 3 kts | 177° |
| 2026-05-07 06:59 | -33.39609 | -70.79607 | 1565 ft | 0 kts | 177° |